Sidell, IL (61876)

2:33 PM CDT on April 21, 2015 (GMT -0500)
APRSWXNET | | Change Station
CLOSE
Current Station
Personal Weather Station
Location: Newman, IL
Elevation: 649 ft
Nearby Weather Stations
Active Advisory: Wind Advisory

Elev 649 ft 39.80 °N, 87.98 °W | Updated 22 minutes ago

Clear
Clear
60 °F
Feels Like 60 °F
N
19
Wind Variable Wind from WSW
Gusts 32.0 mph

Today
High -- | Low -- °F
--% Chance of Precip.
Yesterday
High -- | Low -- °F
Precip. -- in
6:05 AM 7:35 PM
Waxing Crescent, 12% visible
Pressure 29.77 in
Visibility 10.0 miles
Clouds Clear
Dew Point 27 °F
Humidity 28%
Rainfall in
Snow Depth Not available.
UV 9 out of 12
Pollen 11.10 out of 12
Air Quality Not available.
Flu Activity Regional
METAR KPRG 211915Z AUTO 24019G30KT 10SM CLR 16/M01 A2977 RMK AO2 T01571013

More Conditions Fewer Conditions

Pressure 29.77 in
Visibility 10.0 miles
Clouds Clear
Dew Point 27 °F
Humidity 28%
Rainfall in
Snow Depth Not available.
UV 9 out of 12
Pollen 11.10 out of 12
Air Quality Not available.
Flu Activity Regional
METAR KPRG 211915Z AUTO 24019G30KT 10SM CLR 16/M01 A2977 RMK AO2 T01571013

More Conditions Fewer Conditions

10-Day Weather Forecast

Almanac

Astronomy

Apr. 21, 2015 Rise Set
Actual Time
Civil Twilight
Nautical Twilight
Astronomical Twilight
Moon
Length of Visible Light
Length of Day
Tomorrow will be .
, % of the Moon is Illuminated

Today's Extremes

State Highs State Lows

Community

WunderPhotos

Upload Photos

1,815,514 photos uploaded!

WunderBlogs® & News

Nearby

Air Quality

  Air Quality AQ Index Pollutant
Not available.

Snow Depth

Station Depth Elevation

Earthquake Activity

City Distance Mag. Time & Date
Minimum magnitude displayed is 2.5.

Coastal Water Temperatures

Place Temperature

Stations

Nearby Weather Stations

Station Location Temp. Windchill Dew Point Humidity Wind Precip. Elev Updated Type
                   
Wind Advisory
Statement as of 10:21 AM CDT on April 21, 2015

... Wind Advisory remains in effect until 7 PM CDT this evening...

* timing... winds will continue to increase through late
morning... and will be strongest during the early and middle
portions of the afternoon. Winds will gradually diminish toward
sunset.

* Winds... west winds will gust from 40 to 45 mph at times...
mainly during the afternoon.

* Impacts... driving on north south oriented roadways... such as
Interstate 55... Interstate 57... and Interstate 39... may become
difficult... especially for high profile vehicles. Unsecured
outdoor items will be blown around.

Precautionary/preparedness actions...

A Wind Advisory means that sustained winds of 30 mph or frequent
gusts of 45 mph or higher are expected. Winds this strong can
make driving difficult... especially for high profile vehicles.
Use extra caution.


Geelhart